createdAt,value
2018-10-07T00:00:43.241Z,96690.67
2018-10-07T00:03:11.860Z,96696.16
2018-10-07T00:05:40.537Z,96695.34
2018-10-07T00:08:09.167Z,96697.34
2018-10-07T00:10:37.756Z,96695.92
2018-10-07T00:13:06.452Z,96694.41
2018-10-07T00:15:35.055Z,96702.55
2018-10-07T00:18:04.153Z,96701.63
2018-10-07T00:20:32.764Z,96700.11
2018-10-07T00:23:01.356Z,96700.11
2018-10-07T00:25:30.006Z,96707.34
2018-10-07T00:27:58.653Z,96711.65
2018-10-07T00:30:27.268Z,96712.57
2018-10-07T00:32:55.859Z,96717.38
2018-10-07T00:35:24.648Z,96706.66
2018-10-07T00:37:53.217Z,96711.29
2018-10-07T00:40:21.785Z,96718.30
2018-10-07T00:42:50.419Z,96717.59
2018-10-07T00:45:19.652Z,96717.00
2018-10-07T00:47:48.232Z,96714.56
2018-10-07T00:50:16.951Z,96713.38
2018-10-07T00:52:46.462Z,96723.63
2018-10-07T00:55:16.154Z,96723.30
2018-10-07T00:57:47.077Z,96729.94
2018-10-07T01:00:16.266Z,96728.30
2018-10-07T01:02:46.883Z,96721.66
2018-10-07T01:05:16.630Z,96725.50
2018-10-07T01:07:47.650Z,96723.41
2018-10-07T01:10:16.319Z,96724.23
2018-10-07T01:12:44.944Z,96723.55
2018-10-07T01:15:13.580Z,96724.47
2018-10-07T01:17:42.298Z,96723.78
2018-10-07T01:20:10.893Z,96719.95
2018-10-07T01:22:39.643Z,96723.66
2018-10-07T01:25:08.215Z,96721.92
2018-10-07T01:27:36.827Z,96723.90
2018-10-07T01:30:05.899Z,96729.63
2018-10-07T01:32:34.468Z,96723.91
2018-10-07T01:35:03.075Z,96727.98
2018-10-07T01:37:31.684Z,96729.73
2018-10-07T01:40:00.264Z,96731.97
2018-10-07T01:42:28.840Z,96730.91
2018-10-07T01:44:57.592Z,96736.14
2018-10-07T01:47:26.186Z,96737.06
2018-10-07T01:49:54.777Z,96739.41
2018-10-07T01:52:23.453Z,96724.16
2018-10-07T01:54:52.040Z,96731.84
2018-10-07T01:57:20.686Z,96733.92
2018-10-07T01:59:49.336Z,96733.13
2018-10-07T02:02:17.925Z,96733.92
2018-10-07T02:04:46.536Z,96737.44
2018-10-07T02:07:15.224Z,96732.54
2018-10-07T02:09:43.809Z,96732.18
2018-10-07T02:12:12.392Z,96737.17
2018-10-07T02:14:41.079Z,96733.10
2018-10-07T02:17:09.679Z,96733.10
2018-10-07T02:19:38.292Z,96741.38
2018-10-07T02:22:06.956Z,96739.64
2018-10-07T02:24:35.539Z,96746.27
2018-10-07T02:27:04.152Z,96748.94
2018-10-07T02:29:32.852Z,96748.02
2018-10-07T02:32:01.457Z,96746.86
2018-10-07T02:34:30.057Z,96749.17
2018-10-07T02:36:59.167Z,96747.66
2018-10-07T02:39:27.744Z,96748.20
2018-10-07T02:41:56.336Z,96755.39
2018-10-07T02:44:24.939Z,96757.38
2018-10-07T02:46:53.507Z,96757.83
2018-10-07T02:49:22.091Z,96756.63
2018-10-07T02:51:50.786Z,96758.58
2018-10-07T02:54:19.391Z,96762.39
2018-10-07T02:56:47.966Z,96762.98
2018-10-07T02:59:17.527Z,96758.54
2018-10-07T03:01:46.117Z,96765.16
2018-10-07T03:04:14.732Z,96770.72
2018-10-07T03:06:43.594Z,96769.29
2018-10-07T03:09:12.187Z,96780.78
2018-10-07T03:11:40.873Z,96774.36
2018-10-07T03:14:09.488Z,96777.57
2018-10-07T03:16:38.244Z,96784.27
2018-10-07T03:19:07.013Z,96788.38
2018-10-07T03:21:35.980Z,96792.28
2018-10-07T03:24:04.545Z,96794.92
2018-10-07T03:26:33.160Z,96797.91
2018-10-07T03:29:01.760Z,96788.30
2018-10-07T03:31:30.349Z,96793.88
2018-10-07T03:33:59.568Z,96798.98
2018-10-07T03:36:28.267Z,96805.41
2018-10-07T03:38:56.855Z,96803.11
2018-10-07T03:41:25.512Z,96810.32
2018-10-07T03:43:54.267Z,96812.88
2018-10-07T03:46:22.836Z,96813.55
2018-10-07T03:48:51.404Z,96818.53
2018-10-07T03:51:20.035Z,96817.67
2018-10-07T03:53:48.623Z,96823.56
2018-10-07T03:56:17.215Z,96828.67
2018-10-07T03:58:45.812Z,96832.51
2018-10-07T04:01:14.452Z,96835.81
2018-10-07T04:03:43.423Z,96840.72
2018-10-07T04:06:12.060Z,96841.75
2018-10-07T04:08:40.636Z,96834.38
2018-10-07T04:11:09.259Z,96837.50
2018-10-07T04:13:38.076Z,96837.25
2018-10-07T04:16:06.712Z,96839.03
2018-10-07T04:18:35.272Z,96837.62
2018-10-07T04:21:04.016Z,96840.27
2018-10-07T04:23:32.574Z,96841.08
2018-10-07T04:26:01.236Z,96843.30
2018-10-07T04:28:29.844Z,96834.48
2018-10-07T04:30:58.428Z,96837.23
2018-10-07T04:33:27.020Z,96841.64
2018-10-07T04:35:55.911Z,96838.95
2018-10-07T04:38:24.476Z,96831.12
2018-10-07T04:40:53.043Z,96831.94
2018-10-07T04:43:22.372Z,96827.99
2018-10-07T04:45:50.952Z,96837.76
2018-10-07T04:48:19.519Z,96839.48
2018-10-07T04:50:48.588Z,96830.91
2018-10-07T04:53:17.168Z,96827.99
2018-10-07T04:55:45.749Z,96830.66
2018-10-07T04:58:14.688Z,96840.34
2018-10-07T05:00:43.907Z,96841.56
2018-10-07T05:03:12.479Z,96833.88
2018-10-07T05:05:41.236Z,96845.14
2018-10-07T05:08:09.830Z,96848.80
2018-10-07T05:10:48.807Z,96854.30
2018-10-07T05:13:24.636Z,96848.86
2018-10-07T05:16:03.683Z,96847.52
2018-10-07T05:18:32.400Z,96858.83
2018-10-07T05:21:01.061Z,96860.30
2018-10-07T05:23:29.752Z,96864.05
2018-10-07T05:25:58.338Z,96866.67
2018-10-07T05:28:26.932Z,96869.59
2018-10-07T05:30:55.739Z,96876.63
2018-10-07T05:33:24.588Z,96879.48
2018-10-07T05:35:53.106Z,96887.33
2018-10-07T05:38:21.815Z,96887.97
2018-10-07T05:40:50.372Z,96891.43
2018-10-07T05:43:19.094Z,96892.89
2018-10-07T05:45:47.704Z,96897.73
2018-10-07T05:48:16.284Z,96905.77
2018-10-07T05:50:44.938Z,96918.89
2018-10-07T05:53:13.759Z,96918.52
2018-10-07T05:55:42.437Z,96923.55
2018-10-07T05:58:11.148Z,96926.73
2018-10-07T06:00:40.106Z,96930.56
2018-10-07T06:03:19.642Z,96933.11
2018-10-07T06:05:48.387Z,96931.65
2018-10-07T06:08:18.762Z,96934.91
2018-10-07T06:10:47.372Z,96935.40
2018-10-07T06:13:16.316Z,96933.75
2018-10-07T06:15:45.079Z,96943.84
2018-10-07T06:18:13.684Z,96946.13
2018-10-07T06:20:42.429Z,96948.86
2018-10-07T06:23:11.048Z,96954.72
2018-10-07T06:25:39.644Z,96959.37
2018-10-07T06:28:08.645Z,96959.72
2018-10-07T06:30:37.239Z,96963.62
2018-10-07T06:33:05.841Z,96968.92
2018-10-07T06:35:34.467Z,96970.99
2018-10-07T06:38:03.069Z,96963.97
2018-10-07T06:40:31.649Z,96970.25
2018-10-07T06:43:00.373Z,96969.68
2018-10-07T06:45:28.971Z,96969.00
2018-10-07T06:47:57.632Z,96969.08
2018-10-07T06:50:26.227Z,96971.17
2018-10-07T06:52:54.796Z,96972.33
2018-10-07T06:55:23.364Z,96970.58
2018-10-07T06:57:52.055Z,96981.76
2018-10-07T07:00:20.629Z,96983.79
2018-10-07T07:02:49.232Z,96977.23
2018-10-07T07:05:18.071Z,96978.77
2018-10-07T07:07:46.645Z,96976.16
2018-10-07T07:10:15.211Z,96982.41
2018-10-07T07:12:44.024Z,96992.03
2018-10-07T07:15:12.592Z,96998.73
2018-10-07T07:17:41.169Z,97005.93
2018-10-07T07:20:09.810Z,97004.33
2018-10-07T07:22:38.404Z,97005.50
2018-10-07T07:25:07.039Z,97007.83
2018-10-07T07:27:35.743Z,97014.64
2018-10-07T07:30:05.134Z,97023.75
2018-10-07T07:32:33.703Z,97028.27
2018-10-07T07:35:02.339Z,97032.88
2018-10-07T07:37:31.051Z,97028.05
2018-10-07T07:39:59.619Z,97033.63
2018-10-07T07:42:28.466Z,97045.22
2018-10-07T07:44:56.988Z,97048.52
2018-10-07T07:47:25.547Z,97054.66
2018-10-07T07:49:54.155Z,97057.94
2018-10-07T07:52:22.711Z,97059.87
2018-10-07T07:54:51.387Z,97066.72
2018-10-07T07:57:20.012Z,97066.09
2018-10-07T07:59:48.577Z,97071.87
2018-10-07T08:02:17.193Z,97072.50
2018-10-07T08:04:45.856Z,97068.33
2018-10-07T08:07:14.413Z,97074.27
2018-10-07T08:09:42.992Z,97067.17
2018-10-07T08:12:11.606Z,97069.79
2018-10-07T08:14:40.176Z,97064.65
2018-10-07T08:17:08.751Z,97070.26
2018-10-07T08:19:37.415Z,97067.30
2018-10-07T08:22:06.131Z,97074.30
2018-10-07T08:24:34.740Z,97072.63
2018-10-07T08:27:03.485Z,97077.29
2018-10-07T08:29:32.104Z,97075.56
2018-10-07T08:32:00.659Z,97084.09
2018-10-07T08:34:29.358Z,97084.11
2018-10-07T08:36:57.926Z,97088.03
2018-10-07T08:39:26.528Z,97096.06
2018-10-07T08:41:55.735Z,97089.17
2018-10-07T08:44:24.335Z,97079.20
2018-10-07T08:46:52.921Z,97088.89
2018-10-07T08:49:22.072Z,97085.01
2018-10-07T08:51:50.660Z,97091.56
2018-10-07T08:54:19.250Z,97094.77
2018-10-07T08:56:47.940Z,97090.69
2018-10-07T08:59:16.512Z,97094.34
2018-10-07T09:01:45.100Z,97097.03
2018-10-07T09:04:14.066Z,97102.58
2018-10-07T09:06:42.760Z,97113.11
2018-10-07T09:09:12.051Z,97111.77
2018-10-07T09:11:41.108Z,97118.72
2018-10-07T09:14:10.146Z,97117.02
2018-10-07T09:16:38.744Z,97120.55
2018-10-07T09:19:07.472Z,97125.41
2018-10-07T09:21:36.243Z,97126.26
2018-10-07T09:24:04.819Z,97132.36
2018-10-07T09:26:33.552Z,97136.38
2018-10-07T09:29:02.215Z,97135.62
2018-10-07T09:31:31.420Z,97142.05
2018-10-07T09:34:00.453Z,97137.41
2018-10-07T09:36:29.027Z,97139.17
2018-10-07T09:38:57.609Z,97135.66
2018-10-07T09:41:26.240Z,97137.44
2018-10-07T09:43:54.827Z,97139.27
2018-10-07T09:46:23.521Z,97140.95
2018-10-07T09:48:52.568Z,97139.42
2018-10-07T09:51:21.179Z,97145.38
2018-10-07T09:53:49.809Z,97146.09
2018-10-07T09:56:18.614Z,97153.23
2018-10-07T09:58:47.230Z,97154.65
2018-10-07T10:01:15.914Z,97148.39
2018-10-07T10:03:44.551Z,97156.48
2018-10-07T10:06:13.185Z,97149.30
2018-10-07T10:08:41.733Z,97153.36
2018-10-07T10:11:10.482Z,97155.65
2018-10-07T10:13:38.980Z,97156.27
2018-10-07T10:16:07.587Z,97155.75
2018-10-07T10:18:44.163Z,97152.16
2018-10-07T10:21:26.045Z,97154.52
2018-10-07T10:24:14.763Z,97156.63
2018-10-07T10:27:05.048Z,97160.36
2018-10-07T10:29:37.496Z,97161.28
2018-10-07T10:32:11.284Z,97157.46
2018-10-07T10:34:52.980Z,97163.19
2018-10-07T10:37:28.996Z,97164.75
2018-10-07T10:40:00.588Z,97161.41
2018-10-07T10:44:06.900Z,97160.55
2018-10-07T10:46:41.889Z,97159.91
2018-10-07T10:51:21.494Z,97159.78
2018-10-07T10:53:53.352Z,97157.75
2018-10-07T10:56:26.605Z,97165.20
2018-10-07T11:00:10.412Z,97164.86
2018-10-07T11:02:46.192Z,97157.72
2018-10-07T11:05:26.024Z,97153.72
2018-10-07T11:08:00.773Z,97159.52
2018-10-07T11:11:42.070Z,97149.27
2018-10-07T11:14:33.671Z,97152.10
2018-10-07T11:18:13.713Z,97148.59
2018-10-07T11:22:57.704Z,97150.31
2018-10-07T11:25:38.933Z,97145.56
2018-10-07T11:28:19.809Z,97150.91
2018-10-07T11:30:59.769Z,97152.16
2018-10-07T11:35:39.341Z,97156.84
2018-10-07T11:38:15.890Z,97149.72
2018-10-07T11:41:07.513Z,97150.87
2018-10-07T11:43:44.995Z,97148.23
2018-10-07T11:46:29.046Z,97146.90
2018-10-07T11:49:04.689Z,97150.47
2018-10-07T11:51:38.297Z,97154.18
2018-10-07T11:54:12.120Z,97159.98
2018-10-07T11:56:41.055Z,97160.70
2018-10-07T11:59:09.748Z,97162.05
2018-10-07T12:01:38.395Z,97163.41
2018-10-07T12:04:06.970Z,97160.61
2018-10-07T12:06:35.576Z,97161.59
2018-10-07T12:09:05.399Z,97161.69
2018-10-07T12:11:33.967Z,97158.20
2018-10-07T12:14:02.557Z,97164.25
2018-10-07T12:16:31.309Z,97162.06
2018-10-07T12:18:59.802Z,97165.59
2018-10-07T12:21:28.374Z,97164.38
2018-10-07T12:23:57.047Z,97171.31
2018-10-07T12:26:25.611Z,97172.23
2018-10-07T12:28:54.233Z,97164.52
2018-10-07T12:31:22.928Z,97170.08
2018-10-07T12:33:51.516Z,97164.58
2018-10-07T12:36:20.097Z,97168.30
2018-10-07T12:38:48.791Z,97166.27
2018-10-07T12:41:17.360Z,97168.96
2018-10-07T12:43:45.952Z,97171.27
2018-10-07T12:46:14.696Z,97179.14
2018-10-07T12:48:43.272Z,97180.09
2018-10-07T12:51:11.842Z,97181.78
2018-10-07T12:53:40.627Z,97184.64
2018-10-07T12:56:09.396Z,97190.19
2018-10-07T12:58:38.004Z,97189.47
2018-10-07T13:01:07.347Z,97189.14
2018-10-07T13:03:35.928Z,97181.62
2018-10-07T13:06:04.528Z,97185.98
2018-10-07T13:08:33.219Z,97187.06
2018-10-07T13:11:01.803Z,97191.38
2018-10-07T13:13:30.392Z,97189.45
2018-10-07T13:15:59.079Z,97187.06
2018-10-07T13:18:27.624Z,97187.84
2018-10-07T13:20:56.192Z,97187.68
2018-10-07T13:23:24.892Z,97191.85
2018-10-07T13:25:53.816Z,97197.48
2018-10-07T13:28:22.394Z,97194.41
2018-10-07T13:30:51.097Z,97196.58
2018-10-07T13:33:20.203Z,97199.83
2018-10-07T13:35:49.270Z,97194.03
2018-10-07T13:38:18.398Z,97193.56
2018-10-07T13:40:46.975Z,97192.55
2018-10-07T13:43:15.976Z,97187.44
2018-10-07T13:45:44.671Z,97195.77
2018-10-07T13:48:13.254Z,97203.58
2018-10-07T13:50:41.883Z,97200.21
2018-10-07T13:53:10.560Z,97204.05
2018-10-07T13:55:39.231Z,97198.27
2018-10-07T13:58:09.830Z,97201.36
2018-10-07T14:00:39.415Z,97200.86
2018-10-07T14:03:08.976Z,97206.75
2018-10-07T14:05:39.763Z,97202.32
2018-10-07T14:08:09.540Z,97207.67
2018-10-07T14:10:40.773Z,97210.81
2018-10-07T14:13:09.956Z,97203.49
2018-10-07T14:15:39.303Z,97210.54
2018-10-07T14:18:09.039Z,97204.09
2018-10-07T14:20:39.140Z,97199.00
2018-10-07T14:23:09.401Z,97204.44
2018-10-07T14:25:40.943Z,97206.91
2018-10-07T14:28:10.652Z,97206.73
2018-10-07T14:30:40.064Z,97208.56
2018-10-07T14:33:10.551Z,97208.95
2018-10-07T14:35:40.676Z,97211.70
2018-10-07T14:38:09.303Z,97210.09
2018-10-07T14:40:40.093Z,97214.84
2018-10-07T14:43:10.091Z,97214.30
2018-10-07T14:45:40.056Z,97208.26
2018-10-07T14:48:10.074Z,97208.45
2018-10-07T14:50:40.920Z,97211.86
2018-10-07T14:53:12.878Z,97210.09
2018-10-07T14:55:41.580Z,97208.68
2018-10-07T14:58:10.167Z,97213.16
2018-10-07T15:00:39.455Z,97216.44
2018-10-07T15:03:09.383Z,97212.88
2018-10-07T15:05:39.091Z,97209.82
2018-10-07T15:08:09.191Z,97216.95
2018-10-07T15:10:39.754Z,97220.63
2018-10-07T15:13:10.327Z,97218.20
2018-10-07T15:15:40.391Z,97220.78
2018-10-07T15:18:10.739Z,97215.61
2018-10-07T15:20:40.432Z,97219.64
2018-10-07T15:23:09.003Z,97218.11
2018-10-07T15:25:39.471Z,97221.52
2018-10-07T15:28:08.916Z,97217.33
2018-10-07T15:30:38.423Z,97223.98
2018-10-07T15:33:08.024Z,97221.73
2018-10-07T15:35:37.590Z,97227.58
2018-10-07T15:38:07.497Z,97225.53
2018-10-07T15:40:37.898Z,97227.85
2018-10-07T15:43:08.076Z,97231.59
2018-10-07T15:45:37.840Z,97232.62
2018-10-07T15:48:08.977Z,97236.67
2018-10-07T15:50:38.991Z,97239.46
2018-10-07T15:53:09.103Z,97240.44
2018-10-07T15:55:39.576Z,97235.85
2018-10-07T15:58:09.324Z,97241.44
2018-10-07T16:00:38.534Z,97248.42
2018-10-07T16:03:08.553Z,97256.94
2018-10-07T16:05:37.199Z,97254.53
2018-10-07T16:08:08.226Z,97257.00
2018-10-07T16:10:37.100Z,97260.78
2018-10-07T16:13:05.964Z,97260.73
2018-10-07T16:15:35.111Z,97266.88
2018-10-07T16:18:04.551Z,97268.28
2018-10-07T16:20:34.446Z,97273.02
2018-10-07T16:23:04.315Z,97271.06
2018-10-07T16:25:34.275Z,97270.84
2018-10-07T16:28:04.116Z,97273.23
2018-10-07T16:30:34.368Z,97276.90
2018-10-07T16:33:02.959Z,97277.76
2018-10-07T16:35:31.543Z,97275.86
2018-10-07T16:38:00.220Z,97279.09
2018-10-07T16:40:28.853Z,97276.98
2018-10-07T16:42:59.251Z,97285.33
2018-10-07T16:45:29.267Z,97283.37
2018-10-07T16:47:58.707Z,97284.91
2018-10-07T16:50:27.808Z,97294.44
2018-10-07T16:52:57.650Z,97291.18
2018-10-07T16:55:28.050Z,97292.97
2018-10-07T16:57:58.051Z,97301.56
2018-10-07T17:00:28.308Z,97298.90
2018-10-07T17:02:58.861Z,97298.08
2018-10-07T17:05:27.987Z,97308.85
2018-10-07T17:07:57.659Z,97304.55
2018-10-07T17:10:27.797Z,97295.58
2018-10-07T17:12:57.942Z,97304.05
2018-10-07T17:15:27.249Z,97310.34
2018-10-07T17:17:56.966Z,97311.31
2018-10-07T17:20:26.828Z,97314.02
2018-10-07T17:22:55.764Z,97318.59
2018-10-07T17:25:26.055Z,97329.82
2018-10-07T17:27:55.636Z,97334.16
2018-10-07T17:30:24.620Z,97335.93
2018-10-07T17:32:54.111Z,97334.56
2018-10-07T17:35:22.680Z,97344.27
2018-10-07T17:37:51.361Z,97344.97
2018-10-07T17:40:19.971Z,97352.83
2018-10-07T17:42:48.625Z,97366.64
2018-10-07T17:45:17.168Z,97371.42
2018-10-07T17:47:45.808Z,97366.64
2018-10-07T17:50:14.384Z,97369.19
2018-10-07T17:52:42.972Z,97373.77
2018-10-07T17:55:11.672Z,97383.53
2018-10-07T17:57:40.454Z,97382.97
2018-10-07T18:00:09.101Z,97391.62
2018-10-07T18:02:38.248Z,97395.56
2018-10-07T18:05:07.968Z,97403.28
2018-10-07T18:07:37.688Z,97402.22
2018-10-07T18:10:07.275Z,97403.50
2018-10-07T18:12:36.477Z,97406.20
2018-10-07T18:15:05.427Z,97403.58
2018-10-07T18:17:34.403Z,97402.52
2018-10-07T18:20:04.128Z,97409.42
2018-10-07T18:22:35.624Z,97416.09
2018-10-07T18:25:05.063Z,97417.37
2018-10-07T18:27:34.195Z,97415.48
2018-10-07T18:30:04.289Z,97420.23
2018-10-07T18:32:34.464Z,97418.25
2018-10-07T18:35:03.379Z,97424.66
2018-10-07T18:37:31.968Z,97429.75
2018-10-07T18:40:03.238Z,97429.41
2018-10-07T18:42:31.899Z,97440.98
2018-10-07T18:45:03.315Z,97445.97
2018-10-07T18:47:34.434Z,97445.36
2018-10-07T18:50:05.606Z,97447.11
2018-10-07T18:52:35.920Z,97451.12
2018-10-07T18:55:08.154Z,97451.43
2018-10-07T18:57:38.203Z,97448.31
2018-10-07T19:00:09.992Z,97455.01
2018-10-07T19:02:38.753Z,97459.20
2018-10-07T19:05:10.932Z,97463.35
2018-10-07T19:07:40.982Z,97468.95
2018-10-07T19:10:10.632Z,97469.04
2018-10-07T19:12:40.188Z,97476.03
2018-10-07T19:15:09.876Z,97480.27
2018-10-07T19:17:39.440Z,97482.30
2018-10-07T19:20:09.993Z,97486.48
2018-10-07T19:22:39.914Z,97487.31
2018-10-07T19:25:11.893Z,97495.18
2018-10-07T19:27:43.477Z,97489.83
2018-10-07T19:30:12.320Z,97489.70
2018-10-07T19:32:41.187Z,97491.19
2018-10-07T19:35:10.912Z,97499.47
2018-10-07T19:37:41.603Z,97501.55
2018-10-07T19:40:12.680Z,97505.00
2018-10-07T19:42:46.218Z,97510.82
2018-10-07T19:45:16.324Z,97511.91
2018-10-07T19:47:47.593Z,97519.74
2018-10-07T19:50:18.430Z,97525.03
2018-10-07T19:52:49.108Z,97523.82
2018-10-07T19:55:20.961Z,97523.11
2018-10-07T19:57:52.135Z,97522.99
2018-10-07T20:00:24.126Z,97521.91
2018-10-07T20:02:54.168Z,97523.19
2018-10-07T20:05:22.808Z,97526.52
2018-10-07T20:07:51.424Z,97527.80
2018-10-07T20:10:20.028Z,97536.25
2018-10-07T20:12:48.647Z,97538.81
2018-10-07T20:15:17.236Z,97537.00
2018-10-07T20:17:45.855Z,97533.42
2018-10-07T20:20:14.472Z,97537.91
2018-10-07T20:22:43.068Z,97538.47
2018-10-07T20:25:11.653Z,97538.30
2018-10-07T20:27:40.632Z,97541.69
2018-10-07T20:30:09.193Z,97548.92
2018-10-07T20:32:39.962Z,97538.18
2018-10-07T20:35:08.662Z,97545.16
2018-10-07T20:37:37.288Z,97547.16
2018-10-07T20:40:06.596Z,97556.23
2018-10-07T20:42:35.148Z,97560.65
2018-10-07T20:45:03.732Z,97564.11
2018-10-07T20:47:32.545Z,97560.65
2018-10-07T20:50:01.151Z,97567.33
2018-10-07T20:52:29.930Z,97561.29
2018-10-07T20:54:58.742Z,97558.35
2018-10-07T20:57:27.528Z,97565.30
2018-10-07T20:59:56.122Z,97560.16
2018-10-07T21:02:24.822Z,97569.16
2018-10-07T21:04:53.395Z,97572.37
2018-10-07T21:07:22.113Z,97568.78
2018-10-07T21:09:50.824Z,97566.59
2018-10-07T21:12:19.462Z,97566.24
2018-10-07T21:14:48.069Z,97564.23
2018-10-07T21:17:16.700Z,97560.03
2018-10-07T21:19:45.299Z,97565.32
2018-10-07T21:22:13.888Z,97568.05
2018-10-07T21:24:42.573Z,97569.89
2018-10-07T21:27:11.684Z,97568.23
2018-10-07T21:29:40.347Z,97574.12
2018-10-07T21:32:09.168Z,97576.77
2018-10-07T21:34:37.941Z,97577.77
2018-10-07T21:37:07.092Z,97578.22
2018-10-07T21:39:36.219Z,97574.38
2018-10-07T21:42:04.944Z,97571.81
2018-10-07T21:44:33.583Z,97577.14
2018-10-07T21:47:02.280Z,97575.30
2018-10-07T21:49:30.847Z,97579.97
2018-10-07T21:51:59.451Z,97578.04
2018-10-07T21:54:28.408Z,97578.25
2018-10-07T21:56:57.125Z,97578.42
2018-10-07T21:59:25.700Z,97581.78
2018-10-07T22:01:54.480Z,97573.48
2018-10-07T22:04:23.051Z,97572.82
2018-10-07T22:06:51.801Z,97573.00
2018-10-07T22:09:20.778Z,97573.92
2018-10-07T22:11:49.355Z,97562.06
2018-10-07T22:14:17.976Z,97569.64
2018-10-07T22:16:46.705Z,97557.92
2018-10-07T22:19:15.299Z,97553.98
2018-10-07T22:21:43.904Z,97557.30
2018-10-07T22:24:12.889Z,97557.20
2018-10-07T22:26:41.620Z,97557.30
2018-10-07T22:29:10.213Z,97553.08
2018-10-07T22:31:38.968Z,97554.91
2018-10-07T22:34:07.604Z,97561.76
2018-10-07T22:36:36.640Z,97562.66
2018-10-07T22:39:06.719Z,97554.71
2018-10-07T22:41:35.443Z,97561.18
2018-10-07T22:44:04.458Z,97562.84
2018-10-07T22:46:33.163Z,97565.47
2018-10-07T22:49:01.787Z,97567.70
2018-10-07T22:51:30.346Z,97568.22
2018-10-07T22:54:00.049Z,97568.77
2018-10-07T22:56:28.681Z,97572.71
2018-10-07T22:58:57.305Z,97577.44
2018-10-07T23:01:26.000Z,97581.28
2018-10-07T23:03:54.596Z,97582.01
2018-10-07T23:06:23.217Z,97581.66
2018-10-07T23:08:52.568Z,97589.40
2018-10-07T23:11:21.159Z,97578.95
2018-10-07T23:13:49.749Z,97578.68
2018-10-07T23:16:18.527Z,97571.94
2018-10-07T23:18:47.160Z,97571.17
2018-10-07T23:21:15.756Z,97576.29
2018-10-07T23:23:44.752Z,97558.72
2018-10-07T23:26:13.816Z,97569.73
2018-10-07T23:28:42.399Z,97565.66
2018-10-07T23:31:11.019Z,97575.33
2018-10-07T23:33:39.644Z,97572.61
2018-10-07T23:36:08.250Z,97570.44
2018-10-07T23:38:36.939Z,97564.05
2018-10-07T23:41:05.621Z,97564.22
2018-10-07T23:43:34.207Z,97576.50
2018-10-07T23:46:03.214Z,97576.66
2018-10-07T23:48:31.795Z,97581.39
2018-10-07T23:51:00.391Z,97588.33
2018-10-07T23:53:29.290Z,97591.78
2018-10-07T23:55:57.916Z,97594.34
2018-10-07T23:58:26.759Z,97594.12
